Paradise, MI (49768)

1:08 AM EST on December 26, 2014 (GMT -0500)
APRSWXNET Paradise MI US | Change Station
CLOSE
Current Station
Personal Weather Station
Location: Paradise, MI
Elevation: 643 ft
Nearby Weather Stations

Elev 643 ft 46.61 °N, 85.04 °W | Updated 40 minutes ago

Snow
Snow
33 °F
Feels Like 33 °F
N
1
Wind Variable Wind from SSW
Gusts 5.0 mph

Today
High -- | Low -- °F
--% Chance of Precip.
Yesterday
High -- | Low -- °F
Precip. -- in
8:23 AM 4:58 PM
Waxing Crescent, 23% visible
Pressure 29.94 in
Visibility 4.0 miles
Clouds Overcast 700 ft
Windchill 33 °F
Dew Point 31 °F
Humidity 93%
Rainfall 0.00 in
Snow Depth Not available.
UV 0 out of 12
Pollen .10 out of 12
Air Quality Not available.
Flu Activity Not available.
METAR KERY 260554Z AUTO 22006KT 4SM -SN OVC007 00/00 A2994 RMK AO2 T10011002

More Conditions Fewer Conditions

Pressure 29.94 in
Visibility 4.0 miles
Clouds Overcast 700 ft
Windchill 33 °F
Dew Point 31 °F
Humidity 93%
Rainfall 0.00 in
Snow Depth Not available.
UV 0 out of 12
Pollen .10 out of 12
Air Quality Not available.
Flu Activity Not available.
METAR KERY 260554Z AUTO 22006KT 4SM -SN OVC007 00/00 A2994 RMK AO2 T10011002

More Conditions Fewer Conditions

Nowcast | as of 1:00 am EST on December 26, 2014

At 2 am...cloudy...flurries. Temperature 32. Southwest winds 5 mph. At 4 am...cloudy...flurries. Temperature 31. Light winds. At 6 am...cloudy...flurries. Temperature 31. Light winds. At 8 am...cloudy. Periods of flurries. Temperature 32. Light winds.

×

10-Day Weather Forecast

Almanac

Astronomy

Dec. 26, 2014 Rise Set
Actual Time
Civil Twilight
Nautical Twilight
Astronomical Twilight
Moon
Length of Visible Light
Length of Day
Tomorrow will be .
, % of the Moon is Illuminated

Today's Extremes

State Highs State Lows

Community

WunderPhotos

Upload Photos

1,780,551 photos uploaded!

WunderBlogs® & News

Nearby

Air Quality

  Air Quality AQ Index Pollutant
Not available.

Snow Depth

Station Depth Elevation

Earthquake Activity

City Distance Mag. Time & Date
Minimum magnitude displayed is 2.5.

Coastal Water Temperatures

Place Temperature

Nearby Weather Stations